Time;durP1;ratioP1;P1;durP2;ratioP2;P2;SDS_P1;SDS_P2;PMS_P1;PMS_P2;Temp;Humidity;BMP_temperature;BMP_pressure;BME280_temperature;BME280_humidity;BME280_pressure;Samples;Min_cycle;Max_cycle;Signal;HPM_P1;HPM_P2
2023/08/19 00:03:44;;;;;;;39.65;33.13;;;;;;;21.29;100.00;100978.56;5093520;28;20050;-79
2023/08/19 00:09:34;;;;;;;41.92;32.67;;;;;;;21.26;100.00;100979.13;5094091;28;20050;-80
2023/08/19 00:15:21;;;;;;;41.33;33.92;;;;;;;21.24;100.00;100973.97;5093539;28;20035;-80
2023/08/19 00:24:48;;;;;;;43.88;33.90;;;;;;;21.14;100.00;100975.91;5093062;28;20077;-81
2023/08/19 00:27:14;;;;;;;48.28;34.28;;;;;;;21.12;100.00;100973.47;5092228;28;20044;-81
2023/08/19 00:33:01;;;;;;;45.05;36.05;;;;;;;21.12;100.00;100969.94;5093072;28;20042;-79
2023/08/19 00:38:51;;;;;;;43.40;34.33;;;;;;;21.12;100.00;100970.75;5076727;28;20088;-79
2023/08/19 00:44:38;;;;;;;45.03;34.72;;;;;;;21.16;100.00;100974.53;5093276;28;20109;-80
2023/08/19 00:50:25;;;;;;;44.28;34.45;;;;;;;21.12;100.00;100984.34;5079687;28;20058;-80
2023/08/19 00:52:50;;;;;;;47.97;33.20;;;;;;;21.06;100.00;100974.56;5091832;28;20032;-81
2023/08/19 00:58:37;;;;;;;37.08;30.90;;;;;;;20.99;100.00;100966.72;5092426;28;20511;-80
2023/08/19 01:01:03;;;;;;;40.42;32.13;;;;;;;20.95;100.00;100965.66;5092331;28;20024;-80
2023/08/19 01:07:11;;;;;;;38.92;31.80;;;;;;;20.93;100.00;100967.84;5092518;28;20156;-80
2023/08/19 01:16:35;;;;;;;37.83;31.15;;;;;;;21.08;100.00;100961.50;5092576;28;20039;-80
2023/08/19 01:22:37;;;;;;;40.63;32.83;;;;;;;21.08;100.00;100947.09;5092128;28;20150;-80
2023/08/19 01:25:04;;;;;;;40.60;31.85;;;;;;;21.16;100.00;100958.22;5090677;28;20047;-80
2023/08/19 01:30:52;;;;;;;38.92;31.40;;;;;;;21.25;100.00;100950.28;5092316;28;20046;-82
2023/08/19 01:33:18;;;;;;;39.20;30.47;;;;;;;21.27;100.00;100940.75;5073769;28;20017;-81
2023/08/19 01:39:09;;;;;;;36.17;29.45;;;;;;;21.39;100.00;100936.84;5092216;28;20134;-81
2023/08/19 01:41:35;;;;;;;36.17;29.23;;;;;;;21.41;100.00;100923.81;5091134;28;20028;-83
2023/08/19 01:47:22;;;;;;;39.58;29.98;;;;;;;21.46;100.00;100929.19;5091900;28;20507;-81
2023/08/19 01:53:09;;;;;;;37.53;29.63;;;;;;;21.52;100.00;100923.41;5076827;28;20088;-81
2023/08/19 01:59:02;;;;;;;33.45;27.63;;;;;;;21.53;100.00;100919.59;5091854;28;20277;-81
2023/08/19 02:04:49;;;;;;;33.42;26.77;;;;;;;21.59;100.00;100923.91;5080063;28;20078;-80
2023/08/19 02:10:36;;;;;;;32.30;26.08;;;;;;;21.60;100.00;100920.06;5091615;28;20047;-81
2023/08/19 02:16:23;;;;;;;29.33;24.95;;;;;;;21.62;100.00;100914.34;5091305;28;20304;-81
2023/08/19 02:22:10;;;;;;;28.92;24.73;;;;;;;21.62;100.00;100908.91;5091384;28;20372;-79
2023/08/19 02:24:36;;;;;;;29.58;25.58;;;;;;;21.60;100.00;100902.94;5091368;28;20036;-79
2023/08/19 02:27:01;;;;;;;30.63;26.33;;;;;;;21.61;100.00;100901.84;5090374;28;20468;-79
2023/08/19 02:32:48;;;;;;;37.00;25.08;;;;;;;21.63;100.00;100902.38;5091609;28;20059;-80
2023/08/19 02:35:14;;;;;;;30.37;25.17;;;;;;;21.63;100.00;100897.72;5091209;28;20024;-80
2023/08/19 02:37:39;;;;;;;33.05;26.52;;;;;;;21.66;100.00;100896.34;5092772;28;20020;-80
2023/08/19 02:43:26;;;;;;;32.15;25.88;;;;;;;21.65;100.00;100892.00;5094977;28;20443;-80
2023/08/19 02:45:53;;;;;;;28.77;25.57;;;;;;;21.62;100.00;100887.94;5093733;28;20068;-80
2023/08/19 02:55:39;;;;;;;30.95;25.67;;;;;;;21.69;100.00;100889.53;5094666;28;20043;-81
2023/08/19 03:01:26;;;;;;;27.25;23.75;;;;;;;21.64;100.00;100890.38;5094721;28;20097;-81
2023/08/19 03:03:52;;;;;;;28.53;24.97;;;;;;;21.65;100.00;100892.00;5093731;28;20032;-80
2023/08/19 03:06:17;;;;;;;30.53;24.97;;;;;;;21.65;100.00;100881.13;5076216;28;20274;-81
2023/08/19 03:08:42;;;;;;;29.87;25.53;;;;;;;21.62;100.00;100885.22;5075478;28;20804;-81
2023/08/19 03:11:08;;;;;;;28.37;24.30;;;;;;;21.60;100.00;100873.81;5094278;28;20301;-81
2023/08/19 03:13:35;;;;;;;34.38;25.38;;;;;;;21.63;100.00;100883.31;5076010;28;20347;-80
2023/08/19 03:19:22;;;;;;;25.70;22.67;;;;;;;21.65;100.00;100889.28;5094424;28;20034;-81
2023/08/19 03:21:48;;;;;;;29.00;23.10;;;;;;;21.61;100.00;100880.88;5075410;28;20458;-80
2023/08/19 03:24:13;;;;;;;28.33;23.00;;;;;;;21.68;100.00;100883.25;5094047;28;20327;-80
2023/08/19 03:26:39;;;;;;;25.52;22.75;;;;;;;21.65;100.00;100872.94;5075214;28;20431;-79
2023/08/19 03:32:25;;;;;;;26.60;22.50;;;;;;;21.61;100.00;100875.44;5080006;28;20323;-81
2023/08/19 03:34:51;;;;;;;24.70;21.80;;;;;;;21.60;100.00;100881.16;5093897;28;20461;-81
2023/08/19 03:37:16;;;;;;;27.27;20.70;;;;;;;21.57;100.00;100877.09;5094141;28;20313;-78
2023/08/19 03:43:03;;;;;;;22.60;19.80;;;;;;;21.61;100.00;100883.59;5093996;28;20305;-81
2023/08/19 03:45:30;;;;;;;23.38;19.88;;;;;;;21.63;100.00;100883.31;5092892;28;20076;-81
2023/08/19 03:51:17;;;;;;;26.95;20.80;;;;;;;21.61;100.00;100891.75;5093967;28;20058;-81
2023/08/19 03:53:42;;;;;;;23.83;20.70;;;;;;;21.60;100.00;100881.97;5075469;28;20036;-81
2023/08/19 03:56:07;;;;;;;24.60;20.43;;;;;;;21.61;100.00;100878.16;5092800;28;20286;-80
2023/08/19 03:58:32;;;;;;;23.67;19.90;;;;;;;21.61;100.00;100878.16;5093376;28;20367;-81
2023/08/19 04:01:07;;;;;;;23.07;19.63;;;;;;;21.62;100.00;100874.34;5074426;28;20044;-80
2023/08/19 04:03:33;;;;;;;21.67;18.95;;;;;;;21.62;100.00;100879.78;5093439;28;20281;-81
2023/08/19 04:09:20;;;;;;;22.88;18.05;;;;;;;21.59;100.00;100885.00;5093581;28;20434;-80
2023/08/19 04:15:09;;;;;;;19.15;16.80;;;;;;;21.60;100.00;100892.06;5093496;28;20272;-81
2023/08/19 04:17:34;;;;;;;21.15;18.17;;;;;;;21.59;100.00;100887.72;5074982;28;20467;-80
2023/08/19 04:23:22;;;;;;;20.70;17.52;;;;;;;21.62;100.00;100898.03;5093584;28;20047;-80
2023/08/19 04:25:47;;;;;;;20.02;17.40;;;;;;;21.56;100.00;100886.38;5074311;28;20044;-81
2023/08/19 04:31:34;;;;;;;20.60;17.80;;;;;;;21.52;100.00;100900.84;5093055;28;20332;-81
2023/08/19 04:33:59;;;;;;;20.27;17.27;;;;;;;21.49;100.00;100890.53;5092986;28;20401;-81
2023/08/19 04:36:24;;;;;;;23.70;18.33;;;;;;;21.52;100.00;100895.41;5092044;28;20448;-81
2023/08/19 04:38:50;;;;;;;18.77;16.50;;;;;;;21.54;100.00;100895.94;5092865;28;20738;-81
2023/08/19 04:41:16;;;;;;;21.95;16.60;;;;;;;21.55;100.00;100903.00;5074628;28;20277;-81
2023/08/19 04:43:41;;;;;;;20.67;16.17;;;;;;;21.55;100.00;100901.06;5091983;28;20070;-80
2023/08/19 04:46:07;;;;;;;18.00;15.93;;;;;;;21.52;100.00;100907.09;5074613;28;20476;-80
2023/08/19 04:48:32;;;;;;;19.75;16.48;;;;;;;21.55;100.00;100908.44;5091968;28;20278;-81
2023/08/19 04:51:00;;;;;;;20.23;15.87;;;;;;;21.54;100.00;100902.19;5092933;28;20119;-81
2023/08/19 04:53:25;;;;;;;20.73;15.65;;;;;;;21.54;100.00;100901.38;5073870;28;20282;-79
2023/08/19 04:59:12;;;;;;;18.27;15.02;;;;;;;21.60;100.00;100895.59;5092250;28;20051;-78
2023/08/19 05:01:38;;;;;;;19.23;15.68;;;;;;;21.77;100.00;100892.44;5091432;28;20036;-80
2023/08/19 05:04:03;;;;;;;19.30;15.83;;;;;;;21.77;100.00;100891.63;5092517;28;20024;-78
2023/08/19 05:06:29;;;;;;;19.80;15.15;;;;;;;21.78;100.00;100888.63;5073609;28;20297;-80
2023/08/19 05:08:55;;;;;;;20.40;14.57;;;;;;;21.81;100.00;100906.28;5074268;28;20065;-80
2023/08/19 05:11:20;;;;;;;17.70;14.90;;;;;;;21.79;100.00;100890.25;5092335;28;20641;-80
2023/08/19 05:17:07;;;;;;;16.17;14.25;;;;;;;21.80;100.00;100905.47;5092263;28;20313;-81
2023/08/19 05:22:54;;;;;;;16.65;13.73;;;;;;;21.91;100.00;100904.25;5080726;28;20050;-81
2023/08/19 05:25:19;;;;;;;17.80;14.47;;;;;;;21.95;100.00;100904.50;5091239;28;20472;-80
2023/08/19 05:27:44;;;;;;;19.30;13.98;;;;;;;22.02;100.00;100912.34;5092200;28;20270;-80
2023/08/19 05:30:10;;;;;;;16.00;13.57;;;;;;;22.05;100.00;100909.88;5091359;28;20064;-82
2023/08/19 05:35:57;;;;;;;18.55;13.77;;;;;;;21.89;100.00;100922.00;5075997;28;20408;-81
2023/08/19 05:38:23;;;;;;;16.13;13.10;;;;;;;21.81;100.00;100909.00;5091872;28;20036;-80
2023/08/19 05:40:48;;;;;;;20.40;13.10;;;;;;;21.77;100.00;100908.78;5091931;28;20319;-81
2023/08/19 05:43:13;;;;;;;17.98;13.10;;;;;;;21.84;100.00;100917.41;5091054;28;20043;-80
2023/08/19 05:49:00;;;;;;;16.55;13.48;;;;;;;22.07;100.00;100917.75;5091920;28;20094;-80
2023/08/19 05:51:26;;;;;;;16.05;13.18;;;;;;;22.09;100.00;100916.38;5091884;28;20020;-81
2023/08/19 05:53:58;;;;;;;17.50;13.50;;;;;;;22.19;100.00;100923.63;5091775;28;20509;-80
2023/08/19 05:59:45;;;;;;;21.20;12.95;;;;;;;22.29;100.00;100906.38;5092022;28;20503;-80
2023/08/19 06:02:10;;;;;;;16.17;13.40;;;;;;;22.32;100.00;100919.41;5090629;28;20040;-80
2023/08/19 06:07:58;;;;;;;15.05;11.88;;;;;;;22.36;100.00;100940.31;5080393;28;20281;-81
2023/08/19 06:13:45;;;;;;;15.25;12.80;;;;;;;22.48;100.00;100946.16;5095498;28;20384;-81
2023/08/19 06:19:32;;;;;;;15.48;12.77;;;;;;;22.68;100.00;100947.03;5095617;28;20063;-83
2023/08/19 06:25:19;;;;;;;16.23;12.98;;;;;;;22.80;100.00;100947.41;5095351;28;20327;-80
2023/08/19 06:31:06;;;;;;;19.38;13.27;;;;;;;22.95;100.00;100954.59;5094948;28;20638;-81
2023/08/19 06:36:56;;;;;;;18.20;12.75;;;;;;;23.23;100.00;100966.47;5081162;28;20430;-82
2023/08/19 06:42:44;;;;;;;17.80;12.88;;;;;;;24.00;100.00;100972.38;5095252;28;20529;-80
2023/08/19 06:48:33;;;;;;;20.80;12.70;;;;;;;25.09;100.00;100987.16;5094432;28;20104;-80
2023/08/19 06:54:20;;;;;;;13.50;11.55;;;;;;;24.77;100.00;100983.44;5095025;28;20403;-82
2023/08/19 07:00:11;;;;;;;15.68;11.52;;;;;;;24.53;100.00;100982.84;5094939;28;20050;-81
2023/08/19 07:06:00;;;;;;;13.45;10.82;;;;;;;24.45;100.00;100984.38;5078441;28;20585;-81
2023/08/19 07:11:48;;;;;;;17.25;12.25;;;;;;;24.49;100.00;100993.59;5094616;28;20111;-82
2023/08/19 07:17:35;;;;;;;16.90;12.77;;;;;;;26.47;100.00;100997.19;5081402;28;20043;-78
2023/08/19 07:23:23;;;;;;;14.13;11.27;;;;;;;29.03;100.00;100999.50;5093638;28;20094;-79
2023/08/19 07:29:11;;;;;;;17.77;10.57;;;;;;;31.92;89.05;101015.41;5093757;28;20038;-79
2023/08/19 07:34:58;;;;;;;8.98;8.07;;;;;;;30.80;86.97;101007.75;5093562;28;20074;-80
2023/08/19 07:40:45;;;;;;;14.27;9.32;;;;;;;29.62;96.83;101039.91;5095198;28;20629;-79
2023/08/19 07:46:32;;;;;;;11.45;8.98;;;;;;;28.78;99.94;101039.78;5094486;28;20089;-78
2023/08/19 07:48:58;;;;;;;10.88;9.10;;;;;;;28.55;100.00;101033.72;5093081;28;20469;-77
2023/08/19 07:54:45;;;;;;;11.45;9.23;;;;;;;28.78;100.00;101041.72;5094102;28;20039;-77
2023/08/19 08:03:58;;;;;;;10.82;9.63;;;;;;;27.45;100.00;101045.38;5093833;28;20030;-75
2023/08/19 08:06:23;;;;;;;13.80;9.55;;;;;;;27.25;100.00;101027.59;5074521;28;20400;-76
2023/08/19 08:12:10;;;;;;;13.18;10.30;;;;;;;27.45;100.00;101035.19;5093711;28;20039;-77
2023/08/19 08:17:57;;;;;;;14.20;10.00;;;;;;;27.53;100.00;101054.75;5077129;28;20304;-77
2023/08/19 08:23:44;;;;;;;14.50;10.00;;;;;;;27.13;100.00;101058.41;5093433;28;20043;-78
2023/08/19 08:29:31;;;;;;;12.48;10.18;;;;;;;26.59;100.00;101054.16;5092525;28;20043;-78
2023/08/19 08:35:18;;;;;;;13.02;10.38;;;;;;;26.52;100.00;101084.81;5091824;28;20495;-77
2023/08/19 08:41:08;;;;;;;15.77;10.60;;;;;;;26.38;100.00;101086.84;5092604;28;20035;-78
2023/08/19 08:46:56;;;;;;;15.50;10.10;;;;;;;26.28;100.00;101111.75;5092890;28;20046;-77
2023/08/19 08:52:43;;;;;;;13.18;10.55;;;;;;;26.24;100.00;101103.34;5092731;28;20089;-76
2023/08/19 08:58:30;;;;;;;13.55;10.25;;;;;;;26.25;100.00;101109.63;5076933;28;20046;-77
2023/08/19 09:04:18;;;;;;;12.85;10.10;;;;;;;26.18;100.00;101115.56;5092830;28;20277;-78
2023/08/19 09:10:16;;;;;;;15.85;10.82;;;;;;;26.38;100.00;101136.22;5079894;28;20082;-79
2023/08/19 09:16:03;;;;;;;12.13;10.93;;;;;;;26.70;100.00;101148.81;5092882;28;20047;-77
2023/08/19 09:21:49;;;;;;;12.27;10.65;;;;;;;27.39;100.00;101143.59;5092651;28;20477;-80
2023/08/19 09:27:37;;;;;;;12.77;10.85;;;;;;;27.83;100.00;101150.03;5092454;28;20301;-78
2023/08/19 09:33:23;;;;;;;14.02;11.40;;;;;;;28.06;100.00;101162.47;5092203;28;20272;-82
2023/08/19 09:39:10;;;;;;;15.93;13.75;;;;;;;28.42;100.00;101169.59;5077527;28;20830;-81
2023/08/19 09:44:57;;;;;;;16.27;13.20;;;;;;;28.82;100.00;101183.09;5092429;28;20127;-77
2023/08/19 09:50:46;;;;;;;15.55;13.85;;;;;;;29.08;100.00;101181.06;5079757;28;20653;-81
2023/08/19 09:56:33;;;;;;;18.27;13.73;;;;;;;29.12;100.00;101198.56;5092027;28;20051;-80
2023/08/19 10:02:23;;;;;;;18.67;14.88;;;;;;;28.90;100.00;101201.53;5091723;28;20327;-81
2023/08/19 10:08:19;;;;;;;19.70;13.40;;;;;;;29.29;100.00;101215.03;5091936;28;20032;-81
2023/08/19 10:14:07;;;;;;;13.52;12.02;;;;;;;29.06;100.00;101215.59;5091903;28;20057;-75
2023/08/19 10:23:35;;;;;;;16.77;14.15;;;;;;;28.83;100.00;101231.50;5091979;28;20119;-77
2023/08/19 10:29:22;;;;;;;19.58;15.15;;;;;;;28.98;100.00;101233.78;5092023;28;20047;-78
2023/08/19 10:35:09;;;;;;;17.02;12.68;;;;;;;29.57;100.00;101234.69;5091740;28;20131;-82
2023/08/19 10:41:02;;;;;;;17.27;11.88;;;;;;;30.13;99.98;101243.59;5091397;28;20059;-80
2023/08/19 10:47:07;;;;;;;14.70;11.32;;;;;;;29.54;99.16;101264.88;5091490;28;19965;-79
2023/08/19 10:53:03;;;;;;;15.10;13.00;;;;;;;28.10;100.00;101277.34;5091390;28;20031;-78
2023/08/19 10:58:50;;;;;;;17.55;12.75;;;;;;;27.17;100.00;101292.00;5093322;28;20038;-77
2023/08/19 11:04:43;;;;;;;13.65;11.93;;;;;;;26.64;100.00;101297.44;5079132;28;20815;-78
2023/08/19 11:10:33;;;;;;;13.68;11.98;;;;;;;26.63;100.00;101306.78;5094697;28;20105;-79
2023/08/19 11:19:47;;;;;;;15.95;12.38;;;;;;;26.28;100.00;101347.56;5094053;28;20038;-76
2023/08/19 11:25:36;;;;;;;18.55;11.70;;;;;;;26.12;100.00;101354.50;5094172;28;20071;-77
2023/08/19 11:31:24;;;;;;;18.95;12.95;;;;;;;26.02;100.00;101384.84;5094438;28;20479;-78
2023/08/19 11:37:11;;;;;;;15.45;12.68;;;;;;;25.80;100.00;101421.19;5094303;28;20058;-77
2023/08/19 11:43:08;;;;;;;18.42;13.85;;;;;;;25.79;100.00;101425.88;5079509;28;20335;-77
2023/08/19 11:49:03;;;;;;;20.45;14.57;;;;;;;25.75;100.00;101445.94;5094014;28;20058;-80
2023/08/19 11:55:03;;;;;;;17.92;13.30;;;;;;;25.60;100.00;101439.56;5093889;28;20047;-77
2023/08/19 12:00:53;;;;;;;17.02;13.02;;;;;;;25.42;100.00;101447.81;5078073;28;20042;-77
2023/08/19 12:06:41;;;;;;;18.75;12.32;;;;;;;25.34;100.00;101452.06;5093724;28;20094;-77
2023/08/19 12:12:28;;;;;;;16.55;12.75;;;;;;;25.40;100.00;101464.56;5081187;28;20046;-77
2023/08/19 12:18:19;;;;;;;14.73;11.93;;;;;;;25.66;100.00;101483.31;5093402;28;20387;-78
2023/08/19 12:24:06;;;;;;;15.52;11.85;;;;;;;25.94;100.00;101487.78;5093493;28;20132;-77
2023/08/19 12:29:53;;;;;;;14.07;11.77;;;;;;;25.99;100.00;101484.13;5093293;28;20044;-79
2023/08/19 12:35:41;;;;;;;15.07;9.82;;;;;;;25.96;100.00;101504.75;5093109;28;20522;-79
2023/08/19 12:41:30;;;;;;;14.77;10.07;;;;;;;25.84;100.00;101493.47;5078574;28;20097;-79
2023/08/19 12:47:17;;;;;;;14.60;9.75;;;;;;;25.98;100.00;101488.00;5092950;28;20491;-79
2023/08/19 12:53:05;;;;;;;14.68;10.63;;;;;;;25.85;100.00;101500.56;5080940;28;20273;-79
2023/08/19 12:58:53;;;;;;;14.20;10.93;;;;;;;25.49;100.00;101503.88;5092594;28;20043;-79
2023/08/19 13:04:40;;;;;;;18.00;12.95;;;;;;;25.20;100.00;101503.22;5092756;28;20051;-79
2023/08/19 13:10:27;;;;;;;16.50;12.18;;;;;;;24.87;100.00;101526.91;5092235;28;20602;-79
2023/08/19 13:16:14;;;;;;;17.80;11.23;;;;;;;24.63;100.00;101543.34;5092573;28;20085;-79
2023/08/19 13:22:01;;;;;;;13.05;10.35;;;;;;;24.44;100.00;101550.66;5077498;28;20039;-78
2023/08/19 13:27:47;;;;;;;16.48;9.73;;;;;;;24.20;100.00;101565.06;5092407;28;20274;-80
2023/08/19 13:33:34;;;;;;;14.95;9.80;;;;;;;23.97;100.00;101544.75;5092624;28;20684;-81
2023/08/19 13:39:21;;;;;;;12.88;9.18;;;;;;;23.76;100.00;101557.78;5092136;28;20305;-80
2023/08/19 13:45:08;;;;;;;15.32;9.02;;;;;;;23.15;100.00;101562.78;5093261;28;20090;-78
2023/08/19 13:50:56;;;;;;;13.00;8.50;;;;;;;23.14;100.00;101533.88;5092668;28;20141;-77
2023/08/19 13:56:45;;;;;;;13.50;7.85;;;;;;;23.41;100.00;101586.09;5092669;28;20535;-78
2023/08/19 14:02:32;;;;;;;11.07;7.25;;;;;;;23.59;100.00;101523.78;5092071;28;20035;-79
2023/08/19 14:08:19;;;;;;;11.77;7.07;;;;;;;24.16;100.00;101547.59;5091912;28;20642;-77
2023/08/19 14:14:05;;;;;;;10.50;4.88;;;;;;;24.70;100.00;101554.72;5093985;28;20081;-78
2023/08/19 14:19:53;;;;;;;8.73;3.50;;;;;;;25.28;100.00;101571.81;5091855;28;20304;-77
2023/08/19 14:25:40;;;;;;;4.35;2.40;;;;;;;25.45;98.35;101574.06;5091842;28;20109;-79
2023/08/19 14:31:27;;;;;;;5.45;2.00;;;;;;;25.70;93.30;101550.13;5092355;28;20043;-78
2023/08/19 14:37:15;;;;;;;7.22;2.38;;;;;;;25.69;93.69;101551.25;5095238;28;20038;-78
2023/08/19 14:43:03;;;;;;;7.75;2.92;;;;;;;25.49;95.39;101549.63;5095513;28;20042;-77
2023/08/19 14:48:50;;;;;;;6.38;2.40;;;;;;;25.64;95.85;101558.41;5095140;28;20066;-79
2023/08/19 14:58:06;;;;;;;5.25;2.55;;;;;;;26.14;93.50;101563.38;5094750;28;20074;-80
2023/08/19 15:03:54;;;;;;;7.70;2.78;;;;;;;26.28;92.25;101580.66;5094920;28;20530;-79
2023/08/19 15:09:41;;;;;;;9.68;3.53;;;;;;;26.44;90.77;101581.25;5095942;28;20040;-79
2023/08/19 15:15:28;;;;;;;7.40;3.55;;;;;;;26.51;94.78;101579.72;5094573;28;20419;-78
2023/08/19 15:21:15;;;;;;;10.10;4.05;;;;;;;26.09;94.48;101572.50;5093462;28;20443;-77
2023/08/19 15:27:03;;;;;;;10.35;3.78;;;;;;;25.71;96.15;101576.41;5094129;28;20630;-78
2023/08/19 15:32:51;;;;;;;11.10;3.90;;;;;;;25.74;96.95;101573.91;5094341;28;20474;-77
2023/08/19 15:38:38;;;;;;;8.25;4.43;;;;;;;25.68;99.02;101572.34;5093862;28;20051;-76
2023/08/19 15:44:25;;;;;;;9.90;4.13;;;;;;;25.73;100.00;101575.00;5093525;28;20039;-79
2023/08/19 15:50:12;;;;;;;7.07;4.38;;;;;;;25.73;100.00;101579.66;5093872;28;20757;-78
2023/08/19 15:55:59;;;;;;;9.43;5.05;;;;;;;25.80;100.00;101578.19;5093727;28;20139;-79
2023/08/19 16:01:46;;;;;;;8.80;4.82;;;;;;;26.03;100.00;101572.91;5094017;28;20392;-77
2023/08/19 16:07:36;;;;;;;8.32;4.90;;;;;;;25.85;99.96;101589.06;5093824;28;20864;-78
2023/08/19 16:13:23;;;;;;;9.30;5.03;;;;;;;25.55;100.00;101584.03;5093972;28;20139;-77
2023/08/19 16:19:10;;;;;;;7.47;5.43;;;;;;;25.53;100.00;101598.03;5093197;28;20051;-77
2023/08/19 16:24:58;;;;;;;9.57;4.20;;;;;;;25.83;100.00;101585.00;5093531;28;20174;-76
2023/08/19 16:30:45;;;;;;;11.38;4.55;;;;;;;26.05;100.00;101587.94;5093365;28;20096;-78
2023/08/19 16:36:32;;;;;;;9.60;4.50;;;;;;;25.83;100.00;101601.47;5096080;28;20043;-78
2023/08/19 16:38:57;;;;;;;8.97;5.33;;;;;;;25.49;100.00;101607.94;5093231;28;20040;-78
2023/08/19 16:44:44;;;;;;;13.23;4.55;;;;;;;25.46;100.00;101608.53;5094552;28;20105;-78
2023/08/19 16:50:31;;;;;;;9.95;4.90;;;;;;;25.36;100.00;101607.84;5093194;28;20380;-78
2023/08/19 16:52:56;;;;;;;11.93;5.30;;;;;;;25.39;100.00;101613.56;5093185;28;20028;-78
2023/08/19 16:58:43;;;;;;;12.10;5.93;;;;;;;25.45;100.00;101606.91;5094950;28;20503;-79
2023/08/19 17:04:30;;;;;;;10.07;5.53;;;;;;;25.36;100.00;101614.13;5095017;28;20092;-77
2023/08/19 17:10:17;;;;;;;10.35;5.65;;;;;;;25.44;100.00;101608.00;5101160;28;20046;-78
2023/08/19 17:16:04;;;;;;;10.40;5.18;;;;;;;25.08;100.00;101615.06;5095174;28;20277;-76
2023/08/19 17:21:51;;;;;;;12.50;6.03;;;;;;;24.90;100.00;101622.09;5092501;28;20436;-75
2023/08/19 17:27:37;;;;;;;14.52;6.50;;;;;;;24.56;100.00;101624.91;5091696;28;20292;-75
2023/08/19 17:33:24;;;;;;;12.30;5.72;;;;;;;24.15;100.00;101618.97;5092737;28;20054;-78
2023/08/19 17:39:14;;;;;;;14.13;5.63;;;;;;;24.02;100.00;101640.38;5092044;28;20308;-77
2023/08/19 17:45:01;;;;;;;12.05;5.68;;;;;;;24.05;100.00;101648.00;5096069;28;20128;-75
2023/08/19 17:47:26;;;;;;;13.60;5.50;;;;;;;24.07;100.00;101651.28;5091401;28;20071;-76
2023/08/19 17:53:13;;;;;;;15.82;5.60;;;;;;;24.00;100.00;101647.25;5092464;28;20277;-77
2023/08/19 17:59:02;;;;;;;17.85;6.03;;;;;;;24.02;100.00;101653.22;5091262;28;20356;-75
2023/08/19 18:04:49;;;;;;;15.65;5.85;;;;;;;24.06;100.00;101652.38;5092474;28;20411;-75
2023/08/19 18:10:37;;;;;;;13.55;5.68;;;;;;;23.85;100.00;101653.59;5096907;28;20288;-78
2023/08/19 18:16:24;;;;;;;14.18;6.60;;;;;;;23.58;100.00;101675.88;5095382;28;20155;-77
2023/08/19 18:22:11;;;;;;;17.35;6.80;;;;;;;23.16;100.00;101668.94;5095142;28;20055;-77
2023/08/19 18:27:58;;;;;;;15.38;6.45;;;;;;;22.96;100.00;101670.91;5095126;28;20164;-77
2023/08/19 18:33:45;;;;;;;18.40;7.00;;;;;;;22.84;100.00;101669.31;5094844;28;20285;-77
2023/08/19 18:39:32;;;;;;;14.10;6.65;;;;;;;22.57;100.00;101674.22;5094962;28;20185;-76
2023/08/19 18:45:18;;;;;;;11.98;6.63;;;;;;;22.11;100.00;101687.00;5094875;28;20354;-77
2023/08/19 18:54:27;;;;;;;12.63;6.47;;;;;;;21.55;100.00;101706.69;5094914;28;20055;-76
2023/08/19 19:00:15;;;;;;;16.13;6.95;;;;;;;21.31;100.00;101709.03;5094419;28;20745;-76
2023/08/19 19:06:03;;;;;;;15.90;7.28;;;;;;;21.17;100.00;101704.31;5094879;28;20047;-76
2023/08/19 19:11:49;;;;;;;13.73;6.47;;;;;;;21.10;100.00;101704.50;5094684;28;20546;-76
2023/08/19 19:17:58;;;;;;;21.98;7.78;;;;;;;21.11;100.00;101722.50;5094302;28;20073;-76
2023/08/19 19:23:45;;;;;;;18.90;7.07;;;;;;;20.96;100.00;101725.94;5094335;28;20054;-76
2023/08/19 19:29:32;;;;;;;20.95;7.00;;;;;;;20.79;100.00;101741.56;5094045;28;20366;-76
2023/08/19 19:35:20;;;;;;;12.35;7.18;;;;;;;20.52;100.00;101746.22;5094360;28;20059;-78
2023/08/19 19:41:07;;;;;;;19.20;7.35;;;;;;;20.36;100.00;101746.06;5094010;28;20085;-75
2023/08/19 19:46:55;;;;;;;15.30;7.00;;;;;;;20.32;100.00;101757.69;5093739;28;20631;-75
2023/08/19 19:52:42;;;;;;;11.48;6.72;;;;;;;20.22;100.00;101750.25;5094086;28;20348;-75
2023/08/19 19:58:29;;;;;;;13.18;7.22;;;;;;;20.00;100.00;101755.75;5092872;28;20297;-77
2023/08/19 20:04:16;;;;;;;12.27;7.55;;;;;;;19.81;100.00;101762.56;5093502;28;20124;-75
2023/08/19 20:10:04;;;;;;;15.85;7.50;;;;;;;19.58;100.00;101766.34;5093513;28;20824;-75
2023/08/19 20:15:54;;;;;;;12.25;7.57;;;;;;;19.40;100.00;101769.34;5093746;28;20055;-75
2023/08/19 20:18:19;;;;;;;12.32;7.10;;;;;;;19.42;100.00;101767.19;5091285;28;20127;-75
2023/08/19 20:24:07;;;;;;;10.15;6.15;;;;;;;19.46;100.00;101785.41;5093244;28;20285;-76
2023/08/19 20:29:54;;;;;;;11.80;6.68;;;;;;;19.39;100.00;101779.34;5093184;28;20088;-75
2023/08/19 20:35:41;;;;;;;12.05;7.03;;;;;;;19.16;100.00;101785.81;5093317;28;20046;-76
2023/08/19 20:41:28;;;;;;;17.00;7.53;;;;;;;19.06;100.00;101788.34;5093055;28;20274;-76
2023/08/19 20:47:15;;;;;;;14.15;7.97;;;;;;;18.96;100.00;101793.59;5092990;28;20301;-76
2023/08/19 20:53:02;;;;;;;16.38;8.90;;;;;;;18.70;100.00;101805.91;5093145;28;20138;-76
2023/08/19 20:58:49;;;;;;;13.65;6.63;;;;;;;18.52;100.00;101801.50;5092874;28;20455;-75
2023/08/19 21:04:35;;;;;;;16.80;7.68;;;;;;;18.47;100.00;101812.22;5092718;28;20404;-77
2023/08/19 21:10:22;;;;;;;17.10;7.95;;;;;;;18.50;100.00;101814.47;5092547;28;20629;-76
2023/08/19 21:16:09;;;;;;;17.30;6.63;;;;;;;18.38;100.00;101812.88;5092481;28;20317;-77
2023/08/19 21:21:57;;;;;;;9.57;6.18;;;;;;;18.39;100.00;101819.91;5091661;28;20618;-77
2023/08/19 21:27:44;;;;;;;12.27;6.82;;;;;;;18.37;100.00;101822.88;5092031;28;20479;-76
2023/08/19 21:33:32;;;;;;;13.05;7.55;;;;;;;18.34;100.00;101836.09;5092245;28;20054;-76
2023/08/19 21:39:19;;;;;;;11.15;6.60;;;;;;;18.25;100.00;101841.06;5092297;28;20043;-75
2023/08/19 21:45:07;;;;;;;10.57;6.10;;;;;;;18.23;100.00;101833.19;5092104;28;20070;-76
2023/08/19 21:50:54;;;;;;;13.80;6.63;;;;;;;18.12;100.00;101847.56;5092482;28;20042;-78
2023/08/19 21:56:41;;;;;;;8.35;6.15;;;;;;;18.05;100.00;101835.22;5092254;28;20047;-77
2023/08/19 22:02:28;;;;;;;9.85;5.43;;;;;;;17.97;100.00;101831.00;5091851;28;20273;-76
2023/08/19 22:08:16;;;;;;;11.75;5.63;;;;;;;17.88;100.00;101843.25;5092039;28;20055;-76
2023/08/19 22:14:03;;;;;;;8.80;4.88;;;;;;;17.85;100.00;101841.03;5092047;28;20042;-76
2023/08/19 22:19:50;;;;;;;9.55;4.70;;;;;;;17.69;100.00;101837.19;5091932;28;20051;-76
2023/08/19 22:25:38;;;;;;;9.65;4.40;;;;;;;17.77;100.00;101841.41;5091828;28;20050;-77
2023/08/19 22:31:25;;;;;;;8.88;3.70;;;;;;;17.62;100.00;101831.00;5091669;28;20102;-76
2023/08/19 22:37:12;;;;;;;10.48;4.40;;;;;;;17.51;100.00;101835.38;5091652;28;20402;-77
2023/08/19 22:42:59;;;;;;;9.23;4.22;;;;;;;17.46;100.00;101829.84;5091735;28;20052;-77
2023/08/19 22:48:46;;;;;;;8.85;4.40;;;;;;;17.39;100.00;101842.69;5091262;28;20391;-77
2023/08/19 22:54:34;;;;;;;8.02;4.28;;;;;;;17.26;100.00;101846.41;5092976;28;20313;-76
2023/08/19 23:00:21;;;;;;;8.95;3.85;;;;;;;17.32;100.00;101841.94;5094896;28;20059;-78
2023/08/19 23:02:47;;;;;;;6.72;3.63;;;;;;;17.26;100.00;101845.59;5093815;28;20044;-77
2023/08/19 23:08:34;;;;;;;8.38;3.70;;;;;;;17.15;100.00;101851.81;5094662;28;20072;-76
2023/08/19 23:10:59;;;;;;;10.63;3.80;;;;;;;17.09;100.00;101858.16;5076444;28;20032;-76
2023/08/19 23:13:24;;;;;;;8.87;3.53;;;;;;;17.04;100.00;101859.66;5076282;28;20059;-77
2023/08/19 23:15:49;;;;;;;7.80;3.47;;;;;;;16.98;100.00;101863.28;5093624;28;20282;-77